sensor_id;sensor_type;location;lat;lon;timestamp;pressure;altitude;pressure_sealevel;temperature;humidity
21401;BME280;18038;50.166;18.908;2024-03-02T00:01:33;97333.19;;;7.30;100.00
21401;BME280;18038;50.166;18.908;2024-03-02T00:04:44;97334.47;;;7.34;100.00
21401;BME280;18038;50.166;18.908;2024-03-02T00:07:54;97325.03;;;7.31;99.88
21401;BME280;18038;50.166;18.908;2024-03-02T00:11:04;97329.00;;;7.35;99.70
21401;BME280;18038;50.166;18.908;2024-03-02T00:14:12;97325.41;;;7.28;99.75
21401;BME280;18038;50.166;18.908;2024-03-02T00:17:24;97329.06;;;7.27;99.66
21401;BME280;18038;50.166;18.908;2024-03-02T00:20:35;97334.75;;;7.24;99.56
21401;BME280;18038;50.166;18.908;2024-03-02T00:23:42;97339.56;;;7.21;100.00
21401;BME280;18038;50.166;18.908;2024-03-02T00:26:51;97341.38;;;7.20;100.00
21401;BME280;18038;50.166;18.908;2024-03-02T00:29:58;97338.00;;;7.26;100.00
21401;BME280;18038;50.166;18.908;2024-03-02T00:33:08;97340.69;;;7.18;100.00
21401;BME280;18038;50.166;18.908;2024-03-02T00:36:24;97334.75;;;7.16;100.00
21401;BME280;18038;50.166;18.908;2024-03-02T00:39:34;97337.22;;;7.17;100.00
21401;BME280;18038;50.166;18.908;2024-03-02T00:42:41;97338.72;;;7.20;99.48
21401;BME280;18038;50.166;18.908;2024-03-02T00:45:50;97333.78;;;7.17;99.73
21401;BME280;18038;50.166;18.908;2024-03-02T00:48:58;97337.16;;;7.11;100.00
21401;BME280;18038;50.166;18.908;2024-03-02T00:52:11;97340.78;;;7.10;99.65
21401;BME280;18038;50.166;18.908;2024-03-02T00:55:20;97338.78;;;7.12;99.98
21401;BME280;18038;50.166;18.908;2024-03-02T00:58:28;97335.41;;;7.18;99.77
21401;BME280;18038;50.166;18.908;2024-03-02T01:01:35;97344.97;;;7.27;98.97
21401;BME280;18038;50.166;18.908;2024-03-02T01:04:44;97346.16;;;7.25;98.96
21401;BME280;18038;50.166;18.908;2024-03-02T01:07:53;97331.81;;;7.19;98.40
21401;BME280;18038;50.166;18.908;2024-03-02T01:11:02;97339.44;;;7.14;98.32
21401;BME280;18038;50.166;18.908;2024-03-02T01:14:10;97335.47;;;7.10;98.54
21401;BME280;18038;50.166;18.908;2024-03-02T01:17:18;97328.34;;;7.10;98.16
21401;BME280;18038;50.166;18.908;2024-03-02T01:20:26;97321.41;;;7.09;98.46
21401;BME280;18038;50.166;18.908;2024-03-02T01:23:37;97320.25;;;7.12;97.52
21401;BME280;18038;50.166;18.908;2024-03-02T01:26:45;97314.00;;;7.05;97.66
21401;BME280;18038;50.166;18.908;2024-03-02T01:29:53;97319.66;;;7.02;97.75
21401;BME280;18038;50.166;18.908;2024-03-02T01:33:00;97313.03;;;7.06;97.71
21401;BME280;18038;50.166;18.908;2024-03-02T01:36:10;97314.81;;;7.05;97.26
21401;BME280;18038;50.166;18.908;2024-03-02T01:39:20;97311.56;;;7.03;96.92
21401;BME280;18038;50.166;18.908;2024-03-02T01:42:28;97314.38;;;7.02;97.16
21401;BME280;18038;50.166;18.908;2024-03-02T01:45:36;97312.72;;;7.01;97.13
21401;BME280;18038;50.166;18.908;2024-03-02T01:48:44;97310.38;;;6.83;97.17
21401;BME280;18038;50.166;18.908;2024-03-02T01:51:51;97307.69;;;6.68;98.21
21401;BME280;18038;50.166;18.908;2024-03-02T01:55:03;97303.56;;;6.65;99.04
21401;BME280;18038;50.166;18.908;2024-03-02T01:58:14;97295.47;;;6.67;98.97
21401;BME280;18038;50.166;18.908;2024-03-02T02:01:23;97296.09;;;6.69;98.56
21401;BME280;18038;50.166;18.908;2024-03-02T02:04:30;97298.16;;;6.59;98.55
21401;BME280;18038;50.166;18.908;2024-03-02T02:07:38;97287.44;;;6.52;99.18
21401;BME280;18038;50.166;18.908;2024-03-02T02:10:49;97285.63;;;6.52;99.41
21401;BME280;18038;50.166;18.908;2024-03-02T02:13:57;97286.63;;;6.51;98.96
21401;BME280;18038;50.166;18.908;2024-03-02T02:17:05;97291.91;;;6.51;99.29
21401;BME280;18038;50.166;18.908;2024-03-02T02:20:13;97289.28;;;6.51;99.21
21401;BME280;18038;50.166;18.908;2024-03-02T02:23:23;97289.41;;;6.58;99.25
21401;BME280;18038;50.166;18.908;2024-03-02T02:26:31;97286.56;;;6.60;98.80
21401;BME280;18038;50.166;18.908;2024-03-02T02:29:38;97294.34;;;6.61;98.45
21401;BME280;18038;50.166;18.908;2024-03-02T02:32:46;97288.41;;;6.59;98.83
21401;BME280;18038;50.166;18.908;2024-03-02T02:35:54;97285.59;;;6.61;98.59
21401;BME280;18038;50.166;18.908;2024-03-02T02:39:07;97279.28;;;6.62;98.64
21401;BME280;18038;50.166;18.908;2024-03-02T02:42:17;97280.28;;;6.61;98.36
21401;BME280;18038;50.166;18.908;2024-03-02T02:45:26;97280.06;;;6.47;98.49
21401;BME280;18038;50.166;18.908;2024-03-02T02:48:34;97284.91;;;6.36;99.47
21401;BME280;18038;50.166;18.908;2024-03-02T02:51:42;97282.47;;;6.34;99.23
21401;BME280;18038;50.166;18.908;2024-03-02T02:54:52;97279.03;;;6.25;99.69
21401;BME280;18038;50.166;18.908;2024-03-02T02:58:00;97275.78;;;6.15;100.00
21401;BME280;18038;50.166;18.908;2024-03-02T03:01:07;97281.91;;;6.16;100.00
21401;BME280;18038;50.166;18.908;2024-03-02T03:04:16;97284.56;;;6.16;100.00
21401;BME280;18038;50.166;18.908;2024-03-02T03:07:23;97289.19;;;6.14;100.00
21401;BME280;18038;50.166;18.908;2024-03-02T03:10:34;97285.72;;;6.13;100.00
21401;BME280;18038;50.166;18.908;2024-03-02T03:13:41;97284.25;;;6.11;100.00
21401;BME280;18038;50.166;18.908;2024-03-02T03:16:50;97292.13;;;6.19;100.00
21401;BME280;18038;50.166;18.908;2024-03-02T03:19:57;97292.59;;;6.22;100.00
21401;BME280;18038;50.166;18.908;2024-03-02T03:23:05;97291.13;;;6.20;100.00
21401;BME280;18038;50.166;18.908;2024-03-02T03:26:15;97299.72;;;6.22;100.00
21401;BME280;18038;50.166;18.908;2024-03-02T03:29:23;97286.53;;;6.14;100.00
21401;BME280;18038;50.166;18.908;2024-03-02T03:32:30;97291.19;;;6.12;100.00
21401;BME280;18038;50.166;18.908;2024-03-02T03:35:39;97292.19;;;6.11;100.00
21401;BME280;18038;50.166;18.908;2024-03-02T03:38:46;97295.34;;;6.06;100.00
21401;BME280;18038;50.166;18.908;2024-03-02T03:41:56;97295.03;;;6.01;100.00
21401;BME280;18038;50.166;18.908;2024-03-02T03:45:05;97294.22;;;6.00;100.00
21401;BME280;18038;50.166;18.908;2024-03-02T03:48:14;97289.75;;;6.01;100.00
21401;BME280;18038;50.166;18.908;2024-03-02T03:51:21;97270.28;;;5.94;100.00
21401;BME280;18038;50.166;18.908;2024-03-02T03:54:29;97292.00;;;6.12;100.00
21401;BME280;18038;50.166;18.908;2024-03-02T03:57:39;97288.00;;;6.16;100.00
21401;BME280;18038;50.166;18.908;2024-03-02T04:00:47;97285.84;;;6.20;100.00
21401;BME280;18038;50.166;18.908;2024-03-02T04:03:55;97281.81;;;6.32;100.00
21401;BME280;18038;50.166;18.908;2024-03-02T04:07:03;97282.47;;;6.34;99.83
21401;BME280;18038;50.166;18.908;2024-03-02T04:10:11;97274.78;;;6.39;99.47
21401;BME280;18038;50.166;18.908;2024-03-02T04:13:21;97283.38;;;6.41;99.26
21401;BME280;18038;50.166;18.908;2024-03-02T04:16:29;97286.38;;;6.38;99.20
21401;BME280;18038;50.166;18.908;2024-03-02T04:19:37;97277.16;;;6.34;98.99
21401;BME280;18038;50.166;18.908;2024-03-02T04:22:44;97285.47;;;6.23;99.35
21401;BME280;18038;50.166;18.908;2024-03-02T04:25:52;97280.91;;;6.17;99.75
21401;BME280;18038;50.166;18.908;2024-03-02T04:29:02;97285.53;;;6.15;99.97
21401;BME280;18038;50.166;18.908;2024-03-02T04:32:10;97282.22;;;6.13;100.00
21401;BME280;18038;50.166;18.908;2024-03-02T04:35:17;97290.16;;;6.13;99.83
21401;BME280;18038;50.166;18.908;2024-03-02T04:38:26;97287.53;;;6.13;100.00
21401;BME280;18038;50.166;18.908;2024-03-02T04:41:33;97282.72;;;6.16;100.00
21401;BME280;18038;50.166;18.908;2024-03-02T04:44:44;97285.38;;;6.16;99.94
21401;BME280;18038;50.166;18.908;2024-03-02T04:47:51;97286.03;;;6.18;99.55
21401;BME280;18038;50.166;18.908;2024-03-02T04:50:59;97277.56;;;6.23;99.29
21401;BME280;18038;50.166;18.908;2024-03-02T04:54:07;97279.03;;;6.25;99.21
21401;BME280;18038;50.166;18.908;2024-03-02T04:57:15;97284.50;;;6.24;99.25
21401;BME280;18038;50.166;18.908;2024-03-02T05:00:25;97282.16;;;6.29;99.34
21401;BME280;18038;50.166;18.908;2024-03-02T05:03:33;97286.78;;;6.27;98.94
21401;BME280;18038;50.166;18.908;2024-03-02T05:06:41;97287.63;;;6.27;99.00
21401;BME280;18038;50.166;18.908;2024-03-02T05:09:49;97296.22;;;6.29;99.08
21401;BME280;18038;50.166;18.908;2024-03-02T05:12:56;97302.16;;;6.32;98.69
21401;BME280;18038;50.166;18.908;2024-03-02T05:16:07;97308.38;;;6.39;98.74
21401;BME280;18038;50.166;18.908;2024-03-02T05:19:15;97310.84;;;6.40;98.20
21401;BME280;18038;50.166;18.908;2024-03-02T05:22:23;97314.81;;;6.36;98.39
21401;BME280;18038;50.166;18.908;2024-03-02T05:25:30;97309.44;;;6.29;98.61
21401;BME280;18038;50.166;18.908;2024-03-02T05:28:40;97317.22;;;6.23;99.04
21401;BME280;18038;50.166;18.908;2024-03-02T05:31:50;97313.28;;;6.19;99.07
21401;BME280;18038;50.166;18.908;2024-03-02T05:34:58;97315.59;;;6.22;99.47
21401;BME280;18038;50.166;18.908;2024-03-02T05:38:07;97319.44;;;6.11;99.12
21401;BME280;18038;50.166;18.908;2024-03-02T05:41:14;97327.19;;;6.13;99.39
21401;BME280;18038;50.166;18.908;2024-03-02T05:44:22;97326.88;;;6.16;99.43
21401;BME280;18038;50.166;18.908;2024-03-02T05:47:32;97326.38;;;6.12;99.49
21401;BME280;18038;50.166;18.908;2024-03-02T05:50:40;97333.94;;;6.15;99.24
21401;BME280;18038;50.166;18.908;2024-03-02T05:53:48;97319.28;;;6.04;98.84
21401;BME280;18038;50.166;18.908;2024-03-02T05:56:55;97337.13;;;6.11;98.94
21401;BME280;18038;50.166;18.908;2024-03-02T06:00:22;97332.16;;;6.07;99.36
21401;BME280;18038;50.166;18.908;2024-03-02T06:03:32;97343.72;;;6.15;98.92
21401;BME280;18038;50.166;18.908;2024-03-02T06:06:40;97345.34;;;6.24;99.08
21401;BME280;18038;50.166;18.908;2024-03-02T06:09:48;97354.38;;;6.29;98.67
21401;BME280;18038;50.166;18.908;2024-03-02T06:12:57;97342.28;;;6.35;98.97
21401;BME280;18038;50.166;18.908;2024-03-02T06:16:06;97348.59;;;6.26;98.67
21401;BME280;18038;50.166;18.908;2024-03-02T06:19:17;97356.69;;;6.33;98.50
21401;BME280;18038;50.166;18.908;2024-03-02T06:22:25;97360.81;;;6.35;98.11
21401;BME280;18038;50.166;18.908;2024-03-02T06:25:33;97358.66;;;6.31;98.36
21401;BME280;18038;50.166;18.908;2024-03-02T06:28:41;97360.44;;;6.38;97.58
21401;BME280;18038;50.166;18.908;2024-03-02T06:31:49;97351.13;;;6.50;97.82
21401;BME280;18038;50.166;18.908;2024-03-02T06:35:00;97352.97;;;6.50;97.28
21401;BME280;18038;50.166;18.908;2024-03-02T06:38:09;97359.53;;;6.54;97.11
21401;BME280;18038;50.166;18.908;2024-03-02T06:41:16;97361.53;;;6.52;96.74
21401;BME280;18038;50.166;18.908;2024-03-02T06:44:24;97345.19;;;6.48;96.95
21401;BME280;18038;50.166;18.908;2024-03-02T06:47:32;97354.41;;;6.52;96.73
21401;BME280;18038;50.166;18.908;2024-03-02T06:50:42;97359.84;;;6.59;96.58
21401;BME280;18038;50.166;18.908;2024-03-02T06:53:50;97358.31;;;6.65;96.79
21401;BME280;18038;50.166;18.908;2024-03-02T06:56:58;97360.16;;;6.64;96.29
21401;BME280;18038;50.166;18.908;2024-03-02T07:00:06;97339.69;;;6.58;96.10
21401;BME280;18038;50.166;18.908;2024-03-02T07:03:15;97355.44;;;6.75;96.46
21401;BME280;18038;50.166;18.908;2024-03-02T07:06:26;97361.03;;;6.80;95.50
21401;BME280;18038;50.166;18.908;2024-03-02T07:09:35;97352.53;;;6.84;95.99
21401;BME280;18038;50.166;18.908;2024-03-02T07:12:43;97362.09;;;6.93;95.26
21401;BME280;18038;50.166;18.908;2024-03-02T07:15:51;97363.09;;;6.92;95.29
21401;BME280;18038;50.166;18.908;2024-03-02T07:19:12;97360.31;;;7.09;94.74
21401;BME280;18038;50.166;18.908;2024-03-02T07:22:23;97367.38;;;7.16;94.29
21401;BME280;18038;50.166;18.908;2024-03-02T07:25:31;97373.28;;;7.27;94.36
21401;BME280;18038;50.166;18.908;2024-03-02T07:28:42;97366.63;;;7.31;93.71
21401;BME280;18038;50.166;18.908;2024-03-02T07:31:49;97375.38;;;7.31;93.32
21401;BME280;18038;50.166;18.908;2024-03-02T07:34:58;97377.13;;;7.39;93.67
21401;BME280;18038;50.166;18.908;2024-03-02T07:38:10;97383.38;;;7.46;92.92
21401;BME280;18038;50.166;18.908;2024-03-02T07:41:18;97383.13;;;7.56;92.54
21401;BME280;18038;50.166;18.908;2024-03-02T07:44:26;97386.41;;;7.58;92.15
21401;BME280;18038;50.166;18.908;2024-03-02T07:47:34;97390.88;;;7.57;91.79
21401;BME280;18038;50.166;18.908;2024-03-02T07:50:42;97381.75;;;7.60;92.11
21401;BME280;18038;50.166;18.908;2024-03-02T07:53:53;97372.34;;;7.57;92.10
21401;BME280;18038;50.166;18.908;2024-03-02T07:57:01;97396.50;;;7.77;91.46
21401;BME280;18038;50.166;18.908;2024-03-02T08:00:10;97395.94;;;7.82;90.98
21401;BME280;18038;50.166;18.908;2024-03-02T08:03:19;97390.63;;;7.82;90.65
21401;BME280;18038;50.166;18.908;2024-03-02T08:06:28;97397.47;;;7.76;90.98
21401;BME280;18038;50.166;18.908;2024-03-02T08:09:39;97390.19;;;7.78;91.46
21401;BME280;18038;50.166;18.908;2024-03-02T08:12:47;97393.66;;;7.94;91.14
21401;BME280;18038;50.166;18.908;2024-03-02T08:15:55;97390.28;;;7.85;90.44
21401;BME280;18038;50.166;18.908;2024-03-02T08:19:04;97392.66;;;7.95;90.08
21401;BME280;18038;50.166;18.908;2024-03-02T08:22:13;97382.97;;;8.17;89.96
21401;BME280;18038;50.166;18.908;2024-03-02T08:25:24;97383.41;;;8.20;88.95
21401;BME280;18038;50.166;18.908;2024-03-02T08:28:32;97390.31;;;8.51;89.58
21401;BME280;18038;50.166;18.908;2024-03-02T08:31:42;97386.97;;;8.79;87.92
21401;BME280;18038;50.166;18.908;2024-03-02T08:34:49;97396.00;;;9.06;86.19
21401;BME280;18038;50.166;18.908;2024-03-02T08:37:58;97385.28;;;9.14;85.59
21401;BME280;18038;50.166;18.908;2024-03-02T08:41:08;97396.88;;;9.28;85.70
21401;BME280;18038;50.166;18.908;2024-03-02T08:44:18;97399.84;;;9.40;85.94
21401;BME280;18038;50.166;18.908;2024-03-02T08:47:26;97395.69;;;9.58;85.42
21401;BME280;18038;50.166;18.908;2024-03-02T08:50:35;97369.88;;;9.52;84.21
21401;BME280;18038;50.166;18.908;2024-03-02T08:53:43;97407.94;;;9.81;83.63
21401;BME280;18038;50.166;18.908;2024-03-02T08:56:54;97391.44;;;9.64;84.22
21401;BME280;18038;50.166;18.908;2024-03-02T09:00:03;97415.94;;;9.59;84.84
21401;BME280;18038;50.166;18.908;2024-03-02T09:03:13;97413.00;;;9.48;85.25
21401;BME280;18038;50.166;18.908;2024-03-02T09:06:20;97310.72;;;8.73;85.42
21401;BME280;18038;50.166;18.908;2024-03-02T09:09:29;97402.19;;;9.49;85.79
21401;BME280;18038;50.166;18.908;2024-03-02T09:12:40;97412.72;;;9.64;85.83
21401;BME280;18038;50.166;18.908;2024-03-02T09:15:48;97410.75;;;9.73;84.92
21401;BME280;18038;50.166;18.908;2024-03-02T09:18:56;97417.44;;;9.69;84.46
21401;BME280;18038;50.166;18.908;2024-03-02T09:22:05;97414.72;;;9.84;83.69
21401;BME280;18038;50.166;18.908;2024-03-02T09:25:14;97418.75;;;9.79;83.74
21401;BME280;18038;50.166;18.908;2024-03-02T09:28:24;97425.22;;;9.98;83.01
21401;BME280;18038;50.166;18.908;2024-03-02T09:31:32;97427.34;;;10.10;82.72
21401;BME280;18038;50.166;18.908;2024-03-02T09:34:40;97432.59;;;10.31;82.84
21401;BME280;18038;50.166;18.908;2024-03-02T09:37:47;97431.00;;;10.37;80.96
21401;BME280;18038;50.166;18.908;2024-03-02T09:40:56;97424.88;;;10.43;81.76
21401;BME280;18038;50.166;18.908;2024-03-02T09:44:05;97424.06;;;10.42;81.91
21401;BME280;18038;50.166;18.908;2024-03-02T09:47:14;97435.50;;;10.71;81.86
21401;BME280;18038;50.166;18.908;2024-03-02T09:50:21;97438.66;;;10.60;82.41
21401;BME280;18038;50.166;18.908;2024-03-02T09:53:31;97438.03;;;10.51;82.94
21401;BME280;18038;50.166;18.908;2024-03-02T09:56:40;97445.66;;;10.61;82.96
21401;BME280;18038;50.166;18.908;2024-03-02T09:59:50;97445.50;;;10.69;82.34
21401;BME280;18038;50.166;18.908;2024-03-02T10:02:58;97440.81;;;10.36;83.08
21401;BME280;18038;50.166;18.908;2024-03-02T10:06:19;97436.00;;;10.18;82.44
21401;BME280;18038;50.166;18.908;2024-03-02T10:09:28;97436.44;;;10.22;82.85
21401;BME280;18038;50.166;18.908;2024-03-02T10:12:36;97434.81;;;10.21;83.16
21401;BME280;18038;50.166;18.908;2024-03-02T10:15:46;97434.56;;;10.16;83.28
21401;BME280;18038;50.166;18.908;2024-03-02T10:18:56;97435.94;;;10.05;83.61
21401;BME280;18038;50.166;18.908;2024-03-02T10:22:05;97433.78;;;9.94;84.19
21401;BME280;18038;50.166;18.908;2024-03-02T10:25:29;97423.34;;;9.92;84.14
21401;BME280;18038;50.166;18.908;2024-03-02T10:28:46;97430.44;;;10.13;83.97
21401;BME280;18038;50.166;18.908;2024-03-02T10:32:02;97440.34;;;10.26;83.72
21401;BME280;18038;50.166;18.908;2024-03-02T10:35:10;97439.06;;;10.50;83.35
21401;BME280;18038;50.166;18.908;2024-03-02T10:38:19;97435.81;;;10.61;82.45
21401;BME280;18038;50.166;18.908;2024-03-02T10:41:28;97443.63;;;10.63;82.76
21401;BME280;18038;50.166;18.908;2024-03-02T10:44:39;97425.63;;;10.30;82.61
21401;BME280;18038;50.166;18.908;2024-03-02T10:47:50;97444.84;;;10.25;83.96
21401;BME280;18038;50.166;18.908;2024-03-02T10:50:59;97447.41;;;10.12;82.98
21401;BME280;18038;50.166;18.908;2024-03-02T10:54:08;97448.94;;;9.93;82.62
21401;BME280;18038;50.166;18.908;2024-03-02T10:57:17;97451.59;;;9.65;83.30
21401;BME280;18038;50.166;18.908;2024-03-02T11:00:33;97450.38;;;9.46;84.44
21401;BME280;18038;50.166;18.908;2024-03-02T11:03:49;97448.63;;;9.32;85.73
21401;BME280;18038;50.166;18.908;2024-03-02T11:07:00;97434.19;;;9.20;86.34
21401;BME280;18038;50.166;18.908;2024-03-02T11:10:12;97442.81;;;9.22;85.72
21401;BME280;18038;50.166;18.908;2024-03-02T11:13:26;97446.00;;;9.17;86.63
21401;BME280;18038;50.166;18.908;2024-03-02T11:16:43;97444.34;;;9.09;87.22
21401;BME280;18038;50.166;18.908;2024-03-02T11:19:56;97441.03;;;9.07;87.35
21401;BME280;18038;50.166;18.908;2024-03-02T11:23:06;97431.66;;;9.11;87.76
21401;BME280;18038;50.166;18.908;2024-03-02T11:26:17;97438.94;;;9.24;87.45
21401;BME280;18038;50.166;18.908;2024-03-02T11:29:43;97436.63;;;9.36;87.82
21401;BME280;18038;50.166;18.908;2024-03-02T11:32:55;97430.91;;;9.39;87.33
21401;BME280;18038;50.166;18.908;2024-03-02T11:36:07;97432.00;;;9.45;88.11
21401;BME280;18038;50.166;18.908;2024-03-02T11:39:15;97426.38;;;9.61;87.09
21401;BME280;18038;50.166;18.908;2024-03-02T11:42:24;97421.50;;;9.65;86.99
21401;BME280;18038;50.166;18.908;2024-03-02T11:45:31;97421.25;;;9.81;87.02
21401;BME280;18038;50.166;18.908;2024-03-02T11:48:40;97434.25;;;9.97;87.35
21401;BME280;18038;50.166;18.908;2024-03-02T11:52:00;97422.81;;;10.03;86.05
21401;BME280;18038;50.166;18.908;2024-03-02T11:55:09;97414.25;;;10.08;86.05
21401;BME280;18038;50.166;18.908;2024-03-02T11:58:19;97420.28;;;10.23;86.50
21401;BME280;18038;50.166;18.908;2024-03-02T12:01:29;97418.44;;;10.24;86.63
21401;BME280;18038;50.166;18.908;2024-03-02T12:04:36;97425.28;;;10.46;87.17
21401;BME280;18038;50.166;18.908;2024-03-02T12:07:56;97421.69;;;10.61;86.07
21401;BME280;18038;50.166;18.908;2024-03-02T12:11:04;97425.56;;;10.65;86.08
21401;BME280;18038;50.166;18.908;2024-03-02T12:14:12;97417.75;;;10.57;86.83
21401;BME280;18038;50.166;18.908;2024-03-02T12:17:20;97421.81;;;10.46;87.35
21401;BME280;18038;50.166;18.908;2024-03-02T12:20:30;97420.19;;;10.45;87.43
21401;BME280;18038;50.166;18.908;2024-03-02T12:23:41;97418.72;;;10.42;88.32
21401;BME280;18038;50.166;18.908;2024-03-02T12:26:50;97424.13;;;10.56;88.70
21401;BME280;18038;50.166;18.908;2024-03-02T12:29:58;97426.16;;;10.54;87.87
21401;BME280;18038;50.166;18.908;2024-03-02T12:33:06;97424.72;;;10.51;87.32
21401;BME280;18038;50.166;18.908;2024-03-02T12:36:13;97417.06;;;10.35;87.87
21401;BME280;18038;50.166;18.908;2024-03-02T12:39:24;97422.72;;;10.25;87.45
21401;BME280;18038;50.166;18.908;2024-03-02T12:42:31;97420.28;;;10.23;88.87
21401;BME280;18038;50.166;18.908;2024-03-02T12:45:40;97425.53;;;10.17;89.67
21401;BME280;18038;50.166;18.908;2024-03-02T12:48:47;97426.34;;;10.11;90.56
21401;BME280;18038;50.166;18.908;2024-03-02T12:51:56;97418.84;;;10.21;90.75
21401;BME280;18038;50.166;18.908;2024-03-02T12:55:07;97417.97;;;10.14;91.07
21401;BME280;18038;50.166;18.908;2024-03-02T12:58:19;97417.97;;;10.14;92.26
21401;BME280;18038;50.166;18.908;2024-03-02T13:01:28;97417.97;;;10.14;92.17
21401;BME280;18038;50.166;18.908;2024-03-02T13:04:36;97415.13;;;10.15;92.54
21401;BME280;18038;50.166;18.908;2024-03-02T13:07:43;97418.84;;;10.21;93.13
21401;BME280;18038;50.166;18.908;2024-03-02T13:10:55;97416.34;;;10.13;93.33
21401;BME280;18038;50.166;18.908;2024-03-02T13:14:02;97412.00;;;10.12;93.08
21401;BME280;18038;50.166;18.908;2024-03-02T13:17:12;97409.97;;;10.14;93.97
21401;BME280;18038;50.166;18.908;2024-03-02T13:20:20;97404.84;;;10.12;94.04
21401;BME280;18038;50.166;18.908;2024-03-02T13:23:30;97404.03;;;10.12;94.39
21401;BME280;18038;50.166;18.908;2024-03-02T13:26:40;97405.25;;;10.09;94.80
21401;BME280;18038;50.166;18.908;2024-03-02T13:29:49;97407.72;;;10.11;95.23
21401;BME280;18038;50.166;18.908;2024-03-02T13:32:56;97399.50;;;10.06;95.28
21401;BME280;18038;50.166;18.908;2024-03-02T13:36:05;97401.81;;;10.15;96.02
21401;BME280;18038;50.166;18.908;2024-03-02T13:39:13;97396.84;;;10.12;95.83
21401;BME280;18038;50.166;18.908;2024-03-02T13:42:24;97392.63;;;10.18;95.91
21401;BME280;18038;50.166;18.908;2024-03-02T13:45:32;97397.56;;;10.28;95.49
21401;BME280;18038;50.166;18.908;2024-03-02T13:48:41;97390.63;;;10.33;94.89
21401;BME280;18038;50.166;18.908;2024-03-02T13:51:49;97389.44;;;10.42;94.87
21401;BME280;18038;50.166;18.908;2024-03-02T13:54:57;97394.19;;;10.54;93.59
21401;BME280;18038;50.166;18.908;2024-03-02T13:58:07;97394.44;;;10.59;93.41
21401;BME280;18038;50.166;18.908;2024-03-02T14:01:17;97391.22;;;10.70;92.99
21401;BME280;18038;50.166;18.908;2024-03-02T14:04:24;97390.81;;;10.73;92.27
21401;BME280;18038;50.166;18.908;2024-03-02T14:07:33;97397.41;;;10.90;91.52
21401;BME280;18038;50.166;18.908;2024-03-02T14:10:40;97390.50;;;11.03;91.37
21401;BME280;18038;50.166;18.908;2024-03-02T14:13:51;97391.94;;;11.19;91.34
21401;BME280;18038;50.166;18.908;2024-03-02T14:16:59;97392.38;;;11.36;90.82
21401;BME280;18038;50.166;18.908;2024-03-02T14:20:10;97382.75;;;11.48;88.99
21401;BME280;18038;50.166;18.908;2024-03-02T14:23:18;97385.59;;;11.66;88.66
21401;BME280;18038;50.166;18.908;2024-03-02T14:26:27;97383.53;;;11.82;87.73
21401;BME280;18038;50.166;18.908;2024-03-02T14:29:37;97387.63;;;11.91;86.67
21401;BME280;18038;50.166;18.908;2024-03-02T14:32:45;97389.66;;;12.02;86.23
21401;BME280;18038;50.166;18.908;2024-03-02T14:35:53;97395.59;;;12.11;85.95
21401;BME280;18038;50.166;18.908;2024-03-02T14:39:01;97392.56;;;12.14;85.31
21401;BME280;18038;50.166;18.908;2024-03-02T14:42:13;97385.53;;;12.19;85.74
21401;BME280;18038;50.166;18.908;2024-03-02T14:45:23;97385.53;;;12.19;84.75
21401;BME280;18038;50.166;18.908;2024-03-02T14:48:31;97372.19;;;12.19;84.33
21401;BME280;18038;50.166;18.908;2024-03-02T14:51:39;97369.53;;;12.19;85.06
21401;BME280;18038;50.166;18.908;2024-03-02T14:54:47;97376.50;;;12.20;84.43
21401;BME280;18038;50.166;18.908;2024-03-02T14:57:55;97369.31;;;12.21;84.78
21401;BME280;18038;50.166;18.908;2024-03-02T15:01:05;97363.75;;;12.23;84.24
21401;BME280;18038;50.166;18.908;2024-03-02T15:04:14;97364.56;;;12.23;83.69
21401;BME280;18038;50.166;18.908;2024-03-02T15:07:25;97366.81;;;12.26;83.57
21401;BME280;18038;50.166;18.908;2024-03-02T15:10:33;97358.19;;;12.24;83.45
21401;BME280;18038;50.166;18.908;2024-03-02T15:13:41;97361.91;;;12.30;83.42
21401;BME280;18038;50.166;18.908;2024-03-02T15:16:52;97362.91;;;12.29;82.89
21401;BME280;18038;50.166;18.908;2024-03-02T15:20:00;97366.44;;;12.23;82.19
21401;BME280;18038;50.166;18.908;2024-03-02T15:23:09;97366.44;;;12.16;82.56
21401;BME280;18038;50.166;18.908;2024-03-02T15:26:17;97374.91;;;12.06;82.43
21401;BME280;18038;50.166;18.908;2024-03-02T15:29:25;97376.91;;;12.04;82.56
21401;BME280;18038;50.166;18.908;2024-03-02T15:32:36;97386.19;;;11.82;83.91
21401;BME280;18038;50.166;18.908;2024-03-02T15:35:44;97388.25;;;11.73;84.22
21401;BME280;18038;50.166;18.908;2024-03-02T15:38:51;97389.09;;;11.53;85.26
21401;BME280;18038;50.166;18.908;2024-03-02T15:41:59;97400.38;;;11.36;86.69
21401;BME280;18038;50.166;18.908;2024-03-02T15:45:09;97393.78;;;11.25;88.37
21401;BME280;18038;50.166;18.908;2024-03-02T15:48:20;97392.53;;;11.21;89.13
21401;BME280;18038;50.166;18.908;2024-03-02T15:51:27;97388.66;;;11.17;89.57
21401;BME280;18038;50.166;18.908;2024-03-02T15:54:35;97390.06;;;10.99;90.60
21401;BME280;18038;50.166;18.908;2024-03-02T15:57:44;97389.66;;;10.96;92.11
21401;BME280;18038;50.166;18.908;2024-03-02T16:00:52;97387.69;;;10.63;93.00
21401;BME280;18038;50.166;18.908;2024-03-02T16:04:02;97376.38;;;10.48;94.36
21401;BME280;18038;50.166;18.908;2024-03-02T16:07:10;97383.25;;;10.35;95.15
21401;BME280;18038;50.166;18.908;2024-03-02T16:10:18;97381.44;;;10.01;97.32
21401;BME280;18038;50.166;18.908;2024-03-02T16:13:26;97379.69;;;9.80;98.87
21401;BME280;18038;50.166;18.908;2024-03-02T16:16:34;97378.47;;;9.83;99.46
21401;BME280;18038;50.166;18.908;2024-03-02T16:19:45;97373.16;;;9.83;100.00
21401;BME280;18038;50.166;18.908;2024-03-02T16:22:53;97373.22;;;9.96;100.00
21401;BME280;18038;50.166;18.908;2024-03-02T16:26:01;97373.44;;;9.94;99.54
21401;BME280;18038;50.166;18.908;2024-03-02T16:29:08;97374.53;;;10.07;99.33
21401;BME280;18038;50.166;18.908;2024-03-02T16:32:16;97372.88;;;10.06;98.70
21401;BME280;18038;50.166;18.908;2024-03-02T16:35:26;97372.09;;;10.12;99.26